CCA965 ZBAA-EDDF
Flight info
| Callsign | CCA965 |
|---|---|
| Flight time | N/A |
| Altitude | 32100 |
| Route | K0917S1040 IDKEX2G IDKEX B339 ASILA A575 INTIK Y655 SEBRA/K0928S1100 Y655 AROGU A575 DARNO/K0917F360 A575 KD A308 OSNAB R362 KZ A575 UNKIS/K0917F380 P982 LIKNU N869 DURTI L29 SUPEK DCT BENIM DCT INKUZ/K0907F400 DCT LAFAT/N0489F400 DCT VABER DCT SUWGI DCT SUBIX DCT POVEL DCT RIMET/N0495F310 T157 KOKEB/N0461F230 T157 KERAX KERAX5A |
| Aircraft | B748/H-SDE3FGHIM1M2RWXY/LB1 |
Departure
| Time | 2026-05-05 05:33 |
|---|---|
| Airport | Beijing Capital International Airport (ZBAA) |
Arrival
| Time | N/A |
|---|---|
| Airport | Frankfurt Main Airport (EDDF) |
| Time | Latitude | Longitude | Altitude | Speed | Heading |
|---|---|---|---|---|---|
| 2026-05-05 05:31 | 40.08392 | 116.59918 | 126 ft | 26 kts | 355° |
| 2026-05-05 05:31 | 40.08607 | 116.59888 | 126 ft | 33 kts | 353° |
| 2026-05-05 05:31 | 40.08824 | 116.59851 | 125 ft | 31 kts | 352° |
| 2026-05-05 05:31 | 40.08907 | 116.59783 | 128 ft | 5 kts | 285° |
| 2026-05-05 05:32 | 40.08911 | 116.59724 | 127 ft | 6 kts | 258° |
| 2026-05-05 05:32 | 40.08893 | 116.59651 | 125 ft | 12 kts | 251° |
| 2026-05-05 05:32 | 40.08866 | 116.59528 | 125 ft | 13 kts | 234° |
| 2026-05-05 05:32 | 40.08800 | 116.59507 | 128 ft | 10 kts | 176° |
| 2026-05-05 05:33 | 40.08579 | 116.59537 | 128 ft | 73 kts | 175° |
| 2026-05-05 05:33 | 40.07793 | 116.59665 | 129 ft | 155 kts | 173° |
| 2026-05-05 05:33 | 40.06550 | 116.59869 | 521 ft | 191 kts | 172° |
| 2026-05-05 05:33 | 40.05159 | 116.60104 | 1125 ft | 211 kts | 173° |
| 2026-05-05 05:34 | 40.03703 | 116.60331 | 1859 ft | 212 kts | 174° |
| 2026-05-05 05:34 | 40.02244 | 116.60542 | 2723 ft | 207 kts | 172° |
| 2026-05-05 05:34 | 40.00834 | 116.60808 | 3472 ft | 211 kts | 178° |
| 2026-05-05 05:34 | 39.99279 | 116.61000 | 3646 ft | 235 kts | 179° |
| 2026-05-05 05:35 | 39.97647 | 116.61239 | 4254 ft | 237 kts | 178° |
| 2026-05-05 05:35 | 39.96005 | 116.61502 | 4869 ft | 240 kts | 179° |
| 2026-05-05 05:35 | 39.94295 | 116.61769 | 5314 ft | 254 kts | 179° |
| 2026-05-05 05:35 | 39.92539 | 116.62046 | 6414 ft | 254 kts | 179° |
| 2026-05-05 05:36 | 39.90783 | 116.62319 | 7329 ft | 261 kts | 179° |
| 2026-05-05 05:36 | 39.88925 | 116.62614 | 7861 ft | 276 kts | 174° |
| 2026-05-05 05:36 | 39.87139 | 116.63545 | 9023 ft | 278 kts | 155° |
| 2026-05-05 05:36 | 39.85641 | 116.65252 | 9904 ft | 298 kts | 131° |
| 2026-05-05 05:37 | 39.84662 | 116.67720 | 10465 ft | 324 kts | 108° |
| 2026-05-05 05:37 | 39.84446 | 116.70759 | 10834 ft | 354 kts | 87° |
| 2026-05-05 05:37 | 39.84789 | 116.74064 | 11165 ft | 381 kts | 81° |
| 2026-05-05 05:37 | 39.85329 | 116.77566 | 11461 ft | 407 kts | 79° |
| 2026-05-05 05:38 | 39.85842 | 116.81307 | 11813 ft | 428 kts | 83° |
| 2026-05-05 05:38 | 39.86210 | 116.85175 | 12667 ft | 436 kts | 84° |
| 2026-05-05 05:38 | 39.86596 | 116.89125 | 12803 ft | 441 kts | 82° |
| 2026-05-05 05:38 | 39.87056 | 116.93052 | 12813 ft | 436 kts | 82° |
| 2026-05-05 05:39 | 39.87584 | 116.96945 | 13042 ft | 440 kts | 74° |
| 2026-05-05 05:39 | 39.88666 | 117.00564 | 14214 ft | 435 kts | 62° |
| 2026-05-05 05:39 | 39.90371 | 117.03904 | 14909 ft | 440 kts | 47° |
| 2026-05-05 05:39 | 39.92594 | 117.06551 | 15692 ft | 440 kts | 33° |
| 2026-05-05 05:40 | 39.95272 | 117.08484 | 16446 ft | 440 kts | 19° |
| 2026-05-05 05:40 | 39.98210 | 117.09547 | 17198 ft | 439 kts | 5° |
| 2026-05-05 05:40 | 40.01253 | 117.09697 | 17954 ft | 438 kts | 352° |
| 2026-05-05 05:40 | 40.04263 | 117.09082 | 18610 ft | 439 kts | 345° |
| 2026-05-05 05:41 | 40.07239 | 117.08138 | 19271 ft | 441 kts | 342° |
| 2026-05-05 05:41 | 40.10230 | 117.07174 | 19925 ft | 445 kts | 344° |
| 2026-05-05 05:41 | 40.13296 | 117.06491 | 20559 ft | 450 kts | 349° |
| 2026-05-05 05:41 | 40.16434 | 117.06072 | 21149 ft | 455 kts | 351° |
| 2026-05-05 05:42 | 40.19591 | 117.05620 | 21747 ft | 457 kts | 348° |
| 2026-05-05 05:42 | 40.22746 | 117.04973 | 22315 ft | 460 kts | 347° |
| 2026-05-05 05:42 | 40.25913 | 117.04301 | 22892 ft | 463 kts | 348° |
| 2026-05-05 05:42 | 40.29125 | 117.03724 | 23416 ft | 468 kts | 349° |
| 2026-05-05 05:43 | 40.32360 | 117.03175 | 23878 ft | 470 kts | 348° |
| 2026-05-05 05:43 | 40.35624 | 117.02697 | 24337 ft | 474 kts | 351° |
| 2026-05-05 05:43 | 40.38914 | 117.02302 | 24802 ft | 476 kts | 351° |
| 2026-05-05 05:43 | 40.42217 | 117.01915 | 25241 ft | 478 kts | 351° |
| 2026-05-05 05:44 | 40.44415 | 117.01665 | 25530 ft | 480 kts | 351° |
| 2026-05-05 05:44 | 40.47710 | 117.01007 | 25952 ft | 477 kts | 342° |
| 2026-05-05 05:44 | 40.50849 | 116.99635 | 26388 ft | 474 kts | 333° |
| 2026-05-05 05:44 | 40.53752 | 116.97601 | 26807 ft | 472 kts | 323° |
| 2026-05-05 05:45 | 40.56343 | 116.94966 | 27259 ft | 470 kts | 314° |
| 2026-05-05 05:45 | 40.58554 | 116.91817 | 27699 ft | 469 kts | 306° |
| 2026-05-05 05:45 | 40.60485 | 116.88348 | 28100 ft | 471 kts | 304° |
| 2026-05-05 05:45 | 40.62408 | 116.84847 | 28504 ft | 474 kts | 304° |
| 2026-05-05 05:46 | 40.64339 | 116.81309 | 28891 ft | 476 kts | 304° |
| 2026-05-05 05:46 | 40.66265 | 116.77784 | 29647 ft | 472 kts | 304° |
| 2026-05-05 05:46 | 40.68178 | 116.74291 | 30227 ft | 469 kts | 304° |
| 2026-05-05 05:46 | 40.70061 | 116.70848 | 30693 ft | 468 kts | 304° |
| 2026-05-05 05:47 | 40.71950 | 116.67383 | 31285 ft | 464 kts | 305° |
| 2026-05-05 05:47 | 40.74032 | 116.64142 | 31806 ft | 463 kts | 313° |
| 2026-05-05 05:47 | 40.76458 | 116.61350 | 32284 ft | 463 kts | 321° |
| 2026-05-05 05:47 | 40.79176 | 116.59063 | 32771 ft | 464 kts | 329° |
| 2026-05-05 05:48 | 40.82131 | 116.57329 | 33248 ft | 466 kts | 337° |
| 2026-05-05 05:48 | 40.85259 | 116.56197 | 33762 ft | 467 kts | 346° |
| 2026-05-05 05:48 | 40.88479 | 116.55677 | 34245 ft | 467 kts | 351° |
| 2026-05-05 05:48 | 40.91740 | 116.55359 | 34398 ft | 470 kts | 351° |
| 2026-05-05 05:49 | 40.95014 | 116.55062 | 34706 ft | 470 kts | 351° |
| 2026-05-05 05:49 | 40.98230 | 116.54773 | 34999 ft | 469 kts | 351° |
| 2026-05-05 05:49 | 41.01483 | 116.54466 | 35308 ft | 468 kts | 351° |
| 2026-05-05 05:49 | 41.04730 | 116.54158 | 35598 ft | 467 kts | 351° |
| 2026-05-05 05:50 | 41.07983 | 116.53854 | 35814 ft | 468 kts | 351° |
| 2026-05-05 05:50 | 41.11234 | 116.53551 | 36094 ft | 468 kts | 351° |
| 2026-05-05 05:50 | 41.14482 | 116.53249 | 36364 ft | 467 kts | 351° |
| 2026-05-05 05:50 | 41.17725 | 116.52944 | 36627 ft | 467 kts | 351° |
| 2026-05-05 05:51 | 41.20956 | 116.52557 | 36867 ft | 463 kts | 346° |